National Weather Service Raw Text Product

Displaying AFOS PIL: TAFMCW Received: 2018-03-08 05:25 UTC


085 
FTUS43 KDMX 080525
TAFMCW
TAF
KMCW 080525Z 0806/0906 31011KT P6SM FEW250
     FM090000 36004KT P6SM SCT200=